Time;durP1;ratioP1;P1;durP2;ratioP2;P2;SDS_P1;SDS_P2;PMS_P1;PMS_P2;Temp;Humidity;BMP_temperature;BMP_pressure;BME280_temperature;BME280_humidity;BME280_pressure;Samples;Min_cycle;Max_cycle;Signal;HPM_P1;HPM_P2
2022/12/08 00:01:21;;;;;;;17.80;13.65;;;;;;;0.95;100.00;99042.78;5072811;28;20525;-81
2022/12/08 00:03:47;;;;;;;21.15;14.70;;;;;;;0.99;100.00;99046.16;5072647;28;20024;-81
2022/12/08 00:09:22;;;;;;;22.40;14.10;;;;;;;1.03;100.00;99036.69;5072402;28;20074;-81
2022/12/08 00:11:59;;;;;;;16.88;12.80;;;;;;;0.97;100.00;99029.97;5072597;28;20024;-80
2022/12/08 00:14:30;;;;;;;19.52;12.52;;;;;;;1.07;100.00;99039.16;5072676;28;20025;-80
2022/12/08 00:16:56;;;;;;;20.17;13.15;;;;;;;1.07;100.00;99035.75;5072442;28;20525;-80
2022/12/08 00:19:22;;;;;;;18.13;12.38;;;;;;;1.11;100.00;99037.41;5072647;28;20460;-80
2022/12/08 00:21:48;;;;;;;15.05;11.02;;;;;;;1.06;100.00;99034.06;5072570;28;20032;-81
2022/12/08 00:24:13;;;;;;;14.10;10.95;;;;;;;1.11;100.00;99032.25;5054635;28;20524;-81
2022/12/08 00:26:38;;;;;;;15.85;11.07;;;;;;;1.13;100.00;99036.47;5072489;28;20024;-81
2022/12/08 00:29:04;;;;;;;18.52;11.57;;;;;;;1.16;100.00;99039.00;5072309;28;20030;-81
2022/12/08 00:31:30;;;;;;;20.90;11.55;;;;;;;1.14;100.00;99032.22;5073115;28;20031;-80
2022/12/08 00:33:56;;;;;;;17.52;11.70;;;;;;;1.19;100.00;99028.69;5072266;28;20035;-80
2022/12/08 00:36:21;;;;;;;15.48;12.18;;;;;;;1.22;100.00;99036.34;5054564;28;20111;-80
2022/12/08 00:38:47;;;;;;;15.55;11.90;;;;;;;1.23;100.00;99042.31;5054221;28;20251;-80
2022/12/08 00:41:15;;;;;;;15.13;11.18;;;;;;;1.24;100.00;99034.56;5072269;28;20028;-80
2022/12/08 00:43:41;;;;;;;18.88;13.55;;;;;;;1.24;100.00;99031.16;5054263;28;20623;-80
2022/12/08 00:46:06;;;;;;;16.40;11.30;;;;;;;1.25;100.00;99032.84;5072233;28;20361;-81
2022/12/08 00:48:32;;;;;;;17.08;11.45;;;;;;;1.25;100.00;99037.97;5072414;28;20020;-81
2022/12/08 00:50:57;;;;;;;17.92;12.10;;;;;;;1.19;100.00;99021.00;5071992;28;20448;-81
2022/12/08 00:53:22;;;;;;;18.40;11.55;;;;;;;1.31;100.00;99042.16;5072067;28;20067;-81
2022/12/08 00:55:48;;;;;;;18.65;12.77;;;;;;;1.33;100.00;99054.06;5071973;28;20448;-81
2022/12/08 00:58:13;;;;;;;20.15;12.40;;;;;;;1.33;100.00;99048.09;5072234;28;20024;-80
2022/12/08 01:00:42;;;;;;;17.33;11.98;;;;;;;1.35;100.00;99043.78;5072263;28;20021;-81
2022/12/08 01:03:11;;;;;;;18.08;13.10;;;;;;;1.25;100.00;99027.72;5071706;28;20427;-81
2022/12/08 01:05:36;;;;;;;16.85;12.18;;;;;;;1.31;100.00;99043.00;5072404;28;20024;-81
2022/12/08 01:08:04;;;;;;;20.13;12.60;;;;;;;1.25;100.00;99033.69;5071794;28;20448;-81
2022/12/08 01:10:30;;;;;;;16.17;12.65;;;;;;;1.36;100.00;99051.47;5071910;28;20028;-81
2022/12/08 01:12:56;;;;;;;16.25;12.70;;;;;;;1.35;100.00;99041.19;5053886;28;20032;-81
2022/12/08 01:15:22;;;;;;;18.67;13.20;;;;;;;1.30;100.00;99031.03;5071852;28;20364;-81
2022/12/08 01:17:47;;;;;;;18.45;13.32;;;;;;;1.30;100.00;99040.44;5072013;28;20035;-81
2022/12/08 01:20:12;;;;;;;20.60;13.65;;;;;;;1.25;100.00;99033.69;5071730;28;20031;-81
2022/12/08 01:22:38;;;;;;;17.75;12.25;;;;;;;1.27;100.00;99040.53;5070941;28;20032;-81
2022/12/08 01:25:03;;;;;;;20.27;13.00;;;;;;;1.31;100.00;99050.72;5071565;28;20471;-81
2022/12/08 01:27:28;;;;;;;18.38;12.27;;;;;;;1.34;100.00;99042.09;5071690;28;20029;-81
2022/12/08 01:29:54;;;;;;;17.05;12.02;;;;;;;1.30;100.00;99031.03;5071523;28;20012;-80
2022/12/08 01:32:19;;;;;;;17.85;12.48;;;;;;;1.35;100.00;99043.78;5071966;28;20445;-80
2022/12/08 01:34:44;;;;;;;18.55;11.32;;;;;;;1.35;100.00;99042.06;5071616;28;20040;-81
2022/12/08 01:37:11;;;;;;;16.45;11.40;;;;;;;1.29;100.00;99036.19;5071793;28;20440;-80
2022/12/08 01:39:36;;;;;;;17.55;12.05;;;;;;;1.36;100.00;99038.63;5053579;28;20023;-81
2022/12/08 01:42:02;;;;;;;17.58;12.23;;;;;;;1.33;100.00;99038.69;5071215;28;20033;-81
2022/12/08 01:44:27;;;;;;;19.08;11.68;;;;;;;1.40;100.00;99058.22;5053793;28;20021;-81
2022/12/08 01:46:53;;;;;;;19.13;11.60;;;;;;;1.37;100.00;99055.72;5071565;28;20028;-80
2022/12/08 01:49:26;;;;;;;17.33;12.30;;;;;;;1.39;100.00;99046.28;5071674;28;20052;-81
2022/12/08 01:51:54;;;;;;;15.48;12.25;;;;;;;1.35;100.00;99044.66;5071591;28;20023;-80
2022/12/08 01:54:23;;;;;;;16.80;12.00;;;;;;;1.41;100.00;99059.06;5071338;28;20463;-81
2022/12/08 01:56:57;;;;;;;20.65;12.82;;;;;;;1.42;100.00;99048.75;5071761;28;20083;-80
2022/12/08 01:59:24;;;;;;;18.60;12.02;;;;;;;1.41;100.00;99041.09;5071927;28;20033;-80
2022/12/08 02:01:50;;;;;;;17.13;11.80;;;;;;;1.33;100.00;99019.88;5053372;28;20170;-80
2022/12/08 02:04:15;;;;;;;18.25;11.50;;;;;;;1.36;100.00;99025.81;5071768;28;20064;-80
2022/12/08 02:06:42;;;;;;;15.20;11.32;;;;;;;1.42;100.00;99035.09;5071329;28;20031;-80
2022/12/08 02:09:08;;;;;;;13.90;10.18;;;;;;;1.43;100.00;99031.63;5071845;28;20342;-80
2022/12/08 02:11:33;;;;;;;14.23;10.60;;;;;;;1.44;100.00;99038.50;5071644;28;20031;-80
2022/12/08 02:14:02;;;;;;;17.70;10.90;;;;;;;1.37;100.00;99034.34;5071018;28;20345;-80
2022/12/08 02:16:40;;;;;;;13.77;10.45;;;;;;;1.43;100.00;99045.34;5071495;28;20063;-80
2022/12/08 02:19:27;;;;;;;14.40;9.60;;;;;;;1.45;100.00;99046.13;5071186;28;20024;-81
2022/12/08 02:21:55;;;;;;;12.05;9.85;;;;;;;1.47;100.00;99051.22;5071144;28;20028;-81
2022/12/08 02:24:26;;;;;;;14.73;9.73;;;;;;;1.49;100.00;99049.50;5071222;28;20078;-81
2022/12/08 02:26:58;;;;;;;13.70;10.10;;;;;;;1.49;100.00;99045.22;5071095;28;20027;-81
2022/12/08 02:29:54;;;;;;;13.77;10.43;;;;;;;1.49;100.00;99044.38;5071218;28;20021;-81
2022/12/08 02:32:41;;;;;;;16.30;10.45;;;;;;;1.49;100.00;99044.38;5053080;28;20056;-81
2022/12/08 02:35:17;;;;;;;14.43;9.77;;;;;;;1.49;100.00;99036.66;5074516;28;20032;-80
2022/12/08 02:38:08;;;;;;;13.60;7.93;;;;;;;1.49;100.00;99042.66;5074615;28;20073;-80
2022/12/08 02:40:58;;;;;;;;;;;;;;;1.50;100.00;99040.91;5075261;28;20021;-81
2022/12/08 02:43:28;;;;;;;13.70;9.70;;;;;;;1.51;100.00;99034.91;5074723;28;19962;-81
2022/12/08 02:46:06;;;;;;;14.95;10.43;;;;;;;1.50;100.00;99031.50;5056318;28;20020;-81
2022/12/08 02:48:32;;;;;;;16.10;10.73;;;;;;;1.51;100.00;99024.63;5074511;28;20340;-81
2022/12/08 02:50:58;;;;;;;15.98;11.38;;;;;;;1.50;100.00;99020.38;5074042;28;20017;-81
2022/12/08 02:53:24;;;;;;;14.65;11.77;;;;;;;1.55;100.00;99022.84;5074423;28;20100;-81
2022/12/08 02:56:11;;;;;;;16.70;11.55;;;;;;;1.57;100.00;99011.69;5074595;28;20143;-81
2022/12/08 02:59:08;;;;;;;20.80;13.18;;;;;;;1.53;100.00;99012.63;5074649;28;20078;-81
2022/12/08 03:02:05;;;;;;;19.10;12.15;;;;;;;1.59;100.00;99027.06;4992236;28;20046;-81
2022/12/08 03:04:54;;;;;;;16.73;11.32;;;;;;;1.58;100.00;99026.22;4992583;28;20125;-80
2022/12/08 03:07:27;;;;;;;13.70;10.52;;;;;;;1.55;100.00;99018.56;4992261;28;20044;-81
2022/12/08 03:09:59;;;;;;;16.13;11.30;;;;;;;1.49;100.00;99008.44;4992330;28;20062;-81
2022/12/08 03:12:32;;;;;;;14.55;11.18;;;;;;;1.41;100.00;98994.91;4992300;28;20251;-81
2022/12/08 03:15:07;;;;;;;15.45;11.50;;;;;;;1.50;100.00;99008.41;4992121;28;20026;-81
2022/12/08 03:17:35;;;;;;;17.95;11.20;;;;;;;1.40;100.00;98998.38;4975793;28;20033;-81
2022/12/08 03:20:06;;;;;;;14.30;11.18;;;;;;;1.42;100.00;99006.88;4992295;28;20046;-81
2022/12/08 03:22:31;;;;;;;;;;;;;;;1.45;100.00;99009.38;4992583;28;20027;-81
2022/12/08 03:24:57;;;;;;;13.05;10.65;;;;;;;1.40;100.00;99009.47;4991766;28;20000;-81
2022/12/08 03:27:25;;;;;;;16.70;10.80;;;;;;;1.38;100.00;99003.50;4992155;28;20034;-81
2022/12/08 03:29:52;;;;;;;14.15;9.77;;;;;;;1.38;100.00;99000.94;4992139;28;20058;-81
2022/12/08 03:32:27;;;;;;;13.63;10.13;;;;;;;1.36;100.00;98999.31;4991729;28;20038;-81
2022/12/08 03:34:55;;;;;;;13.80;10.27;;;;;;;1.37;100.00;98995.84;4992409;28;20026;-80
2022/12/08 03:37:20;;;;;;;15.90;10.60;;;;;;;1.37;100.00;98994.13;4991601;28;20426;-81
2022/12/08 03:39:46;;;;;;;15.95;9.77;;;;;;;1.28;100.00;98986.63;5073711;28;20059;-80
2022/12/08 03:42:11;;;;;;;14.63;10.05;;;;;;;1.30;100.00;98992.56;5073313;28;20047;-80
2022/12/08 03:44:36;;;;;;;12.70;9.57;;;;;;;1.35;100.00;99007.84;5072416;28;20035;-80
2022/12/08 03:47:02;;;;;;;15.52;9.93;;;;;;;1.27;100.00;99005.47;5055180;28;20032;-80
2022/12/08 03:49:27;;;;;;;14.02;9.82;;;;;;;1.32;100.00;99013.06;5073553;28;20486;-80
2022/12/08 03:51:52;;;;;;;17.20;9.95;;;;;;;1.32;100.00;99023.31;5073373;28;20531;-81
2022/12/08 03:54:18;;;;;;;16.40;10.48;;;;;;;1.33;100.00;99020.72;5054862;28;20020;-80
2022/12/08 03:56:43;;;;;;;16.40;11.27;;;;;;;1.29;100.00;99003.69;5073164;28;20077;-80
2022/12/08 03:59:09;;;;;;;17.23;11.23;;;;;;;1.31;100.00;99004.53;5073044;28;20028;-81
2022/12/08 04:01:35;;;;;;;16.23;11.43;;;;;;;1.31;100.00;99019.06;5072696;28;20044;-80
2022/12/08 04:04:00;;;;;;;17.27;10.88;;;;;;;1.27;100.00;99012.31;5072988;28;20122;-80
2022/12/08 04:06:25;;;;;;;20.35;10.95;;;;;;;1.25;100.00;99015.72;5055131;28;20498;-80
2022/12/08 04:08:51;;;;;;;15.07;10.45;;;;;;;1.25;100.00;99004.63;5072828;28;20098;-80
2022/12/08 04:11:17;;;;;;;15.68;10.13;;;;;;;1.23;100.00;99009.78;5072521;28;20456;-80
2022/12/08 04:13:43;;;;;;;15.70;11.75;;;;;;;1.15;100.00;98993.72;5072857;28;20020;-81
2022/12/08 04:16:15;;;;;;;15.27;11.02;;;;;;;1.20;100.00;99003.88;5072506;28;20032;-80
2022/12/08 04:18:40;;;;;;;13.95;11.50;;;;;;;1.14;100.00;98994.59;5072942;28;20101;-80
2022/12/08 04:21:05;;;;;;;19.90;12.88;;;;;;;1.13;100.00;98992.88;5072849;28;20071;-80
2022/12/08 04:23:31;;;;;;;19.40;12.32;;;;;;;1.07;100.00;98987.88;5072720;28;20024;-80
2022/12/08 04:25:56;;;;;;;15.10;11.68;;;;;;;1.07;100.00;99000.69;5072579;28;20036;-80
2022/12/08 04:28:21;;;;;;;16.30;12.82;;;;;;;0.86;100.00;98980.59;5072274;28;20023;-80
2022/12/08 04:30:47;;;;;;;17.92;13.25;;;;;;;0.88;100.00;99000.16;5072951;28;20103;-80
2022/12/08 04:33:13;;;;;;;20.00;13.52;;;;;;;0.81;100.00;98988.34;5072363;28;20400;-80
2022/12/08 04:35:38;;;;;;;19.65;12.63;;;;;;;0.85;100.00;98994.28;5072584;28;20368;-81
2022/12/08 04:38:03;;;;;;;18.30;12.27;;;;;;;0.83;100.00;98998.56;5072166;28;20024;-81
2022/12/08 04:40:28;;;;;;;14.50;11.80;;;;;;;0.80;100.00;98993.50;5072476;28;20074;-81
2022/12/08 04:42:54;;;;;;;21.50;12.93;;;;;;;0.71;100.00;98977.41;5072502;28;20436;-81
2022/12/08 04:45:19;;;;;;;19.75;13.48;;;;;;;0.73;100.00;98992.78;5072084;28;20040;-81
2022/12/08 04:47:45;;;;;;;16.08;12.75;;;;;;;0.69;100.00;98986.00;5072743;28;20052;-81
2022/12/08 04:50:11;;;;;;;19.67;14.02;;;;;;;0.69;100.00;98994.53;5072031;28;20021;-81
2022/12/08 04:52:37;;;;;;;18.95;13.32;;;;;;;0.70;100.00;98985.13;5072167;28;20021;-81
2022/12/08 04:55:03;;;;;;;20.77;13.88;;;;;;;0.66;100.00;98981.75;5072185;28;20035;-81
2022/12/08 04:57:28;;;;;;;20.83;13.35;;;;;;;0.64;100.00;98963.03;5071879;28;20515;-81
2022/12/08 04:59:54;;;;;;;16.85;13.68;;;;;;;0.70;100.00;98990.25;5071993;28;20025;-81
2022/12/08 05:02:19;;;;;;;18.85;13.98;;;;;;;0.61;100.00;98969.91;5071544;28;20045;-81
2022/12/08 05:04:45;;;;;;;16.13;13.55;;;;;;;0.67;100.00;98986.00;5054028;28;20024;-81
2022/12/08 05:07:10;;;;;;;17.25;13.30;;;;;;;0.70;100.00;98980.84;5071823;28;20020;-81
2022/12/08 05:09:35;;;;;;;17.65;13.40;;;;;;;0.68;100.00;98987.72;5072002;28;20024;-81
2022/12/08 05:12:01;;;;;;;17.15;12.95;;;;;;;0.66;100.00;98965.56;5071944;28;20099;-81
2022/12/08 05:14:26;;;;;;;25.38;17.05;;;;;;;0.55;100.00;98952.06;5053558;28;20094;-81
2022/12/08 05:16:52;;;;;;;32.88;20.85;;;;;;;0.64;100.00;98969.88;5072165;28;20021;-82
2022/12/08 05:19:17;;;;;;;28.33;18.80;;;;;;;0.58;100.00;98962.28;5053711;28;20107;-81
2022/12/08 05:21:43;;;;;;;26.80;17.20;;;;;;;0.66;100.00;98968.94;5071905;28;20162;-81
2022/12/08 05:24:09;;;;;;;23.60;17.25;;;;;;;0.61;100.00;98964.78;5071644;28;20479;-81
2022/12/08 05:26:34;;;;;;;26.52;16.98;;;;;;;0.63;100.00;98966.47;5053711;28;20024;-82
2022/12/08 05:28:59;;;;;;;22.15;16.00;;;;;;;0.60;100.00;98965.66;5071730;28;20103;-81
2022/12/08 05:31:25;;;;;;;44.83;24.15;;;;;;;0.50;100.00;98968.38;5071979;28;20024;-81
2022/12/08 05:33:51;;;;;;;36.47;23.05;;;;;;;0.39;100.00;98954.91;5071661;28;20028;-81
2022/12/08 05:36:16;;;;;;;39.67;23.58;;;;;;;0.36;100.00;98951.56;5071666;28;20040;-81
2022/12/08 05:38:43;;;;;;;34.42;20.50;;;;;;;0.37;100.00;98950.66;5053739;28;20028;-81
2022/12/08 05:41:12;;;;;;;35.60;19.95;;;;;;;0.35;100.00;98955.84;5071489;28;20035;-81
2022/12/08 05:43:37;;;;;;;91.68;58.85;;;;;;;0.35;100.00;98953.28;5071576;28;20024;-81
2022/12/08 05:46:03;;;;;;;51.35;36.83;;;;;;;0.34;100.00;98945.59;5071577;28;20023;-81
2022/12/08 05:48:29;;;;;;;45.47;32.65;;;;;;;0.41;100.00;98954.88;5071471;28;20310;-81
2022/12/08 05:50:54;;;;;;;46.45;28.02;;;;;;;0.43;100.00;98943.75;5071563;28;20306;-81
2022/12/08 05:53:19;;;;;;;35.72;20.80;;;;;;;0.49;100.00;98947.91;5071236;28;20016;-81
2022/12/08 05:55:46;;;;;;;26.17;17.95;;;;;;;0.60;100.00;98963.09;5071852;28;20028;-81
2022/12/08 05:58:14;;;;;;;28.13;18.35;;;;;;;0.62;100.00;98956.22;5071840;28;20040;-82
2022/12/08 06:00:40;;;;;;;30.42;18.05;;;;;;;0.50;100.00;98931.66;5071724;28;20107;-81
2022/12/08 06:03:05;;;;;;;27.38;17.52;;;;;;;0.53;100.00;98936.72;5071302;28;20075;-81
2022/12/08 06:05:34;;;;;;;23.08;16.50;;;;;;;0.53;100.00;98948.69;5053404;28;20017;-81
2022/12/08 06:07:59;;;;;;;22.73;15.23;;;;;;;0.50;100.00;98950.44;5072267;28;20107;-81
2022/12/08 06:10:25;;;;;;;19.20;14.02;;;;;;;0.45;100.00;98936.03;5075270;28;20052;-81
2022/12/08 06:12:50;;;;;;;22.05;14.50;;;;;;;0.53;100.00;98954.66;5075037;28;20020;-81
2022/12/08 06:15:15;;;;;;;17.70;13.40;;;;;;;0.53;100.00;98958.94;5057123;28;20023;-81
2022/12/08 06:17:41;;;;;;;20.85;13.32;;;;;;;0.49;100.00;98953.88;5075202;28;20028;-81
2022/12/08 06:20:06;;;;;;;23.80;15.65;;;;;;;0.46;100.00;98956.50;5057255;28;20070;-81
2022/12/08 06:22:32;;;;;;;23.98;16.42;;;;;;;0.48;100.00;98956.47;5056898;28;20028;-81
2022/12/08 06:24:57;;;;;;;16.92;13.60;;;;;;;0.44;100.00;98950.53;5074991;28;20048;-81
2022/12/08 06:27:22;;;;;;;19.83;15.13;;;;;;;0.46;100.00;98953.94;5074595;28;20422;-81
2022/12/08 06:29:48;;;;;;;20.27;14.52;;;;;;;0.46;100.00;98950.50;5075022;28;20016;-81
2022/12/08 06:32:13;;;;;;;27.60;19.45;;;;;;;0.48;100.00;98954.75;5056657;28;20069;-81
2022/12/08 06:34:38;;;;;;;28.42;18.23;;;;;;;0.53;100.00;98956.38;5074783;28;20111;-81
2022/12/08 06:37:04;;;;;;;26.17;18.75;;;;;;;0.53;100.00;98951.25;5074713;28;20032;-81
2022/12/08 06:39:29;;;;;;;24.85;18.45;;;;;;;0.54;100.00;98951.22;5056735;28;20021;-81
2022/12/08 06:44:38;;;;;;;20.83;15.55;;;;;;;0.53;100.00;98954.66;5074661;28;20044;-81
2022/12/08 06:47:03;;;;;;;28.30;22.38;;;;;;;0.56;100.00;98952.06;5086502;28;20032;-82
2022/12/08 06:49:29;;;;;;;40.72;29.23;;;;;;;0.54;100.00;98955.50;5093943;28;20024;-81
2022/12/08 06:51:54;;;;;;;52.60;40.30;;;;;;;0.49;100.00;98940.22;5075371;28;20600;-82
2022/12/08 06:54:19;;;;;;;21.30;15.48;;;;;;;0.50;100.00;98950.44;5074390;28;20027;-82
2022/12/08 06:56:44;;;;;;;20.17;15.20;;;;;;;0.58;100.00;98962.28;5093169;28;20462;-81
2022/12/08 06:59:10;;;;;;;21.45;16.25;;;;;;;0.52;100.00;98954.72;5075030;28;20054;-82
2022/12/08 07:01:35;;;;;;;20.25;15.85;;;;;;;0.56;100.00;98961.47;5093436;28;20082;-82
2022/12/08 07:04:00;;;;;;;21.83;16.08;;;;;;;0.58;100.00;98969.97;5094562;28;20028;-82
2022/12/08 07:06:26;;;;;;;21.35;15.77;;;;;;;0.50;100.00;98954.72;5092805;28;20023;-82
2022/12/08 07:08:51;;;;;;;19.08;15.50;;;;;;;0.59;100.00;98962.25;5093993;28;20023;-82
2022/12/08 07:11:16;;;;;;;20.60;15.85;;;;;;;0.58;100.00;98952.88;5094202;28;20032;-82
2022/12/08 07:13:42;;;;;;;22.55;16.40;;;;;;;0.68;100.00;98972.34;5075670;28;20038;-82
2022/12/08 07:16:09;;;;;;;21.40;16.15;;;;;;;0.74;100.00;98973.94;5093867;28;20375;-82
2022/12/08 07:18:35;;;;;;;19.17;16.17;;;;;;;0.78;100.00;98975.59;5093856;28;20366;-82
2022/12/08 07:21:08;;;;;;;20.05;16.10;;;;;;;0.76;100.00;98959.41;5093788;28;20027;-82
2022/12/08 07:23:35;;;;;;;23.25;17.83;;;;;;;0.82;100.00;98966.97;5075273;28;20188;-82
2022/12/08 07:26:02;;;;;;;22.80;17.00;;;;;;;0.82;100.00;98956.72;5094080;28;20020;-82
2022/12/08 07:28:31;;;;;;;25.17;17.23;;;;;;;0.94;100.00;98963.34;5093938;28;20122;-82
2022/12/08 07:30:57;;;;;;;24.95;19.08;;;;;;;1.04;100.00;98976.81;5075944;28;20111;-82
2022/12/08 07:33:23;;;;;;;28.45;21.92;;;;;;;1.00;100.00;98955.53;5093663;28;20115;-82
2022/12/08 07:36:00;;;;;;;25.80;18.95;;;;;;;1.13;100.00;98963.81;5093816;28;20519;-82
2022/12/08 07:38:26;;;;;;;25.15;19.10;;;;;;;1.19;100.00;98973.97;5075479;28;20402;-82
2022/12/08 07:40:52;;;;;;;27.70;19.20;;;;;;;1.21;100.00;98959.38;5093912;28;20024;-82
2022/12/08 07:43:17;;;;;;;29.85;20.50;;;;;;;1.27;100.00;98968.69;5075448;28;20509;-82
2022/12/08 07:45:43;;;;;;;26.88;19.02;;;;;;;1.32;100.00;98964.31;5075307;28;20020;-82
2022/12/08 07:48:08;;;;;;;26.65;20.23;;;;;;;1.33;100.00;98966.84;5093851;28;20173;-82
2022/12/08 07:50:34;;;;;;;28.45;20.75;;;;;;;1.34;100.00;98965.13;5093101;28;20018;-82
2022/12/08 07:52:59;;;;;;;26.75;20.35;;;;;;;1.34;100.00;98965.97;5075547;28;20103;-82
2022/12/08 07:55:24;;;;;;;23.17;18.67;;;;;;;1.37;100.00;98960.78;5093701;28;20027;-82
2022/12/08 07:57:50;;;;;;;24.98;19.90;;;;;;;1.43;100.00;98965.78;5093487;28;20055;-82
2022/12/08 08:00:16;;;;;;;26.85;20.67;;;;;;;1.45;100.00;98963.19;5093258;28;20027;-82
2022/12/08 08:02:42;;;;;;;27.88;20.45;;;;;;;1.49;100.00;98970.78;5093279;28;20545;-82
2022/12/08 08:05:08;;;;;;;28.88;20.10;;;;;;;1.49;100.00;98957.97;5093206;28;20020;-82
2022/12/08 08:07:33;;;;;;;27.48;19.70;;;;;;;1.43;100.00;98946.97;5093420;28;20032;-82
2022/12/08 08:09:59;;;;;;;27.80;20.45;;;;;;;1.58;100.00;98953.50;5093341;28;20475;-82
2022/12/08 08:12:24;;;;;;;28.67;19.90;;;;;;;1.60;100.00;98962.88;5092949;28;20099;-82
2022/12/08 08:14:49;;;;;;;27.98;21.42;;;;;;;1.60;100.00;98955.19;5092989;28;20451;-82
2022/12/08 08:17:15;;;;;;;32.15;21.13;;;;;;;1.74;100.00;98965.97;5092731;28;20051;-82
2022/12/08 08:19:40;;;;;;;29.33;21.23;;;;;;;1.73;100.00;98959.16;5092908;28;20103;-82
2022/12/08 08:22:05;;;;;;;29.52;21.08;;;;;;;1.88;100.00;98973.38;5075118;28;20462;-82
2022/12/08 08:24:30;;;;;;;32.30;23.13;;;;;;;1.84;100.00;98946.06;5093017;28;20016;-82
2022/12/08 08:26:56;;;;;;;31.67;22.17;;;;;;;1.99;100.00;98968.00;5093293;28;20016;-82
2022/12/08 08:29:21;;;;;;;33.75;21.52;;;;;;;1.99;100.00;98961.13;5074592;28;20017;-82
2022/12/08 08:31:47;;;;;;;32.85;21.70;;;;;;;2.06;100.00;98966.97;5092382;28;20043;-82
2022/12/08 08:34:12;;;;;;;37.20;23.65;;;;;;;2.13;100.00;98965.94;5074432;28;20107;-82
2022/12/08 08:36:38;;;;;;;30.35;21.42;;;;;;;2.22;100.00;98970.88;5074449;28;20063;-82
2022/12/08 08:39:04;;;;;;;27.50;21.67;;;;;;;2.20;100.00;98964.09;5092743;28;20349;-82
2022/12/08 08:41:29;;;;;;;29.92;20.40;;;;;;;2.31;100.00;98966.38;5092514;28;20032;-82
2022/12/08 08:43:55;;;;;;;30.27;21.40;;;;;;;2.38;100.00;98967.94;5092670;28;20522;-82
2022/12/08 08:46:20;;;;;;;26.50;20.23;;;;;;;2.40;100.00;98956.75;5092495;28;20286;-82
2022/12/08 08:48:45;;;;;;;25.35;19.98;;;;;;;2.53;100.00;98964.13;5092792;28;20016;-82
2022/12/08 08:51:13;;;;;;;24.85;18.75;;;;;;;2.55;100.00;98952.09;5092639;28;20528;-82
2022/12/08 08:53:39;;;;;;;29.70;21.05;;;;;;;2.62;100.00;98962.19;5092299;28;20016;-82
2022/12/08 08:56:13;;;;;;;26.83;19.83;;;;;;;2.56;100.00;98936.63;5092539;28;20466;-82
2022/12/08 08:58:39;;;;;;;27.67;19.52;;;;;;;2.77;100.00;98945.50;5092113;28;20340;-82
2022/12/08 09:01:05;;;;;;;27.63;19.05;;;;;;;2.84;100.00;98951.34;5074223;28;20020;-82
2022/12/08 09:03:30;;;;;;;23.40;19.02;;;;;;;2.90;100.00;98943.47;5091825;28;20062;-82
2022/12/08 09:05:56;;;;;;;27.08;18.83;;;;;;;3.10;100.00;98954.06;5092445;28;20047;-82
2022/12/08 09:08:22;;;;;;;21.00;16.77;;;;;;;3.06;100.00;98952.44;5092108;28;20027;-82
2022/12/08 09:10:47;;;;;;;30.67;19.63;;;;;;;3.14;100.00;98945.38;5092268;28;20038;-82
2022/12/08 09:13:13;;;;;;;25.88;18.67;;;;;;;3.12;100.00;98946.28;5092182;28;20103;-82
2022/12/08 09:15:38;;;;;;;27.20;20.77;;;;;;;3.03;100.00;98936.25;5073786;28;20023;-82
2022/12/08 09:18:05;;;;;;;30.08;19.92;;;;;;;3.02;100.00;98940.56;5073886;28;20107;-82
2022/12/08 09:20:31;;;;;;;24.15;17.52;;;;;;;3.05;100.00;98939.66;5091781;28;20031;-82
2022/12/08 09:22:56;;;;;;;25.73;19.20;;;;;;;3.04;100.00;98948.25;5092006;28;20020;-82
2022/12/08 09:25:22;;;;;;;28.05;18.80;;;;;;;3.04;100.00;98941.38;5091723;28;20031;-82
2022/12/08 09:27:47;;;;;;;25.83;19.75;;;;;;;3.12;100.00;98941.13;5092054;28;20020;-82
2022/12/08 09:30:13;;;;;;;28.08;19.23;;;;;;;3.21;100.00;98944.31;5092056;28;20115;-82
2022/12/08 09:32:38;;;;;;;25.80;17.80;;;;;;;3.12;100.00;98929.16;5091600;28;20376;-82
2022/12/08 09:35:04;;;;;;;22.92;15.82;;;;;;;3.17;100.00;98939.31;5073587;28;20101;-82
2022/12/08 09:37:29;;;;;;;24.70;17.27;;;;;;;3.11;100.00;98940.28;5091797;28;20027;-82
2022/12/08 09:39:54;;;;;;;25.45;19.88;;;;;;;3.10;100.00;98936.03;5074027;28;20020;-82
2022/12/08 09:42:34;;;;;;;62.58;52.42;;;;;;;3.07;100.00;98925.84;5091840;28;20132;-82
2022/12/08 09:45:10;;;;;;;57.25;46.00;;;;;;;3.16;100.00;98929.88;5096099;28;20029;-82
2022/12/08 09:47:40;;;;;;;49.83;31.27;;;;;;;3.20;100.00;98919.47;5096262;28;20020;-82
2022/12/08 09:50:11;;;;;;;50.38;30.30;;;;;;;3.30;100.00;98935.50;5096066;28;20417;-82
2022/12/08 09:52:51;;;;;;;35.15;22.75;;;;;;;3.36;100.00;98926.75;5095621;28;20047;-82
2022/12/08 09:55:24;;;;;;;32.40;21.25;;;;;;;3.38;100.00;98930.97;5096074;28;20035;-82
2022/12/08 09:57:59;;;;;;;29.33;19.80;;;;;;;3.38;100.00;98923.25;5095692;28;20356;-82
2022/12/08 10:00:24;;;;;;;36.72;23.13;;;;;;;3.36;100.00;98929.31;5095651;28;20016;-82
2022/12/08 10:02:50;;;;;;;29.13;19.30;;;;;;;3.36;100.00;98925.00;5095654;28;20078;-82
2022/12/08 10:05:16;;;;;;;30.90;19.33;;;;;;;3.46;100.00;98928.19;5095593;28;20475;-82
2022/12/08 10:07:47;;;;;;;30.85;20.83;;;;;;;3.50;100.00;98917.75;5095393;28;20320;-82
2022/12/08 10:10:25;;;;;;;26.50;18.33;;;;;;;3.65;100.00;98918.16;5077609;28;20127;-82
2022/12/08 10:13:13;;;;;;;32.65;21.15;;;;;;;3.68;100.00;98910.34;5095599;28;20078;-82
2022/12/08 10:15:50;;;;;;;38.30;25.05;;;;;;;3.71;100.00;98910.28;5095308;28;20024;-82
2022/12/08 10:18:18;;;;;;;43.50;27.42;;;;;;;3.78;100.00;98895.44;5095285;28;20454;-82
2022/12/08 10:20:46;;;;;;;35.58;23.52;;;;;;;3.85;100.00;98910.66;5094978;28;20032;-82
2022/12/08 10:23:12;;;;;;;45.00;23.95;;;;;;;3.93;100.00;98907.88;5095237;28;20031;-82
2022/12/08 10:25:40;;;;;;;38.28;21.80;;;;;;;3.94;100.00;98904.38;5095123;28;20409;-82
2022/12/08 10:28:08;;;;;;;62.83;34.90;;;;;;;3.96;100.00;98902.59;5076999;28;20019;-82
2022/12/08 10:30:33;;;;;;;38.15;22.50;;;;;;;3.90;100.00;98890.75;5095086;28;20490;-82
2022/12/08 10:32:58;;;;;;;30.48;18.58;;;;;;;3.97;100.00;98888.84;5094950;28;20043;-82
2022/12/08 10:35:40;;;;;;;40.47;25.08;;;;;;;3.98;100.00;98886.22;5095044;28;20082;-82
2022/12/08 10:38:16;;;;;;;19.02;14.10;;;;;;;4.08;100.00;98891.91;5072102;28;20035;-82
2022/12/08 10:40:44;;;;;;;15.00;11.82;;;;;;;4.09;99.89;98878.13;5072105;28;20567;-82
2022/12/08 10:43:16;;;;;;;17.15;13.88;;;;;;;4.27;100.00;98884.41;5072199;28;20041;-82
2022/12/08 10:45:42;;;;;;;16.15;13.73;;;;;;;4.28;100.00;98874.94;5071905;28;20523;-82
2022/12/08 10:48:17;;;;;;;16.38;12.05;;;;;;;4.27;99.44;98863.78;5072162;28;20033;-82
2022/12/08 10:50:43;;;;;;;16.30;12.10;;;;;;;4.38;99.82;98884.91;5071982;28;20037;-82
2022/12/08 10:53:08;;;;;;;15.25;13.07;;;;;;;4.42;99.78;98885.63;5055312;28;20032;-82
2022/12/08 10:55:45;;;;;;;14.55;12.35;;;;;;;4.32;99.54;98871.38;5071347;28;20062;-82
2022/12/08 10:58:34;;;;;;;14.00;11.48;;;;;;;4.33;99.88;98878.22;5072080;28;20029;-82
2022/12/08 11:01:13;;;;;;;17.88;12.95;;;;;;;4.20;100.00;98867.47;5071848;28;20039;-82
2022/12/08 11:03:46;;;;;;;18.98;13.15;;;;;;;4.25;100.00;98884.44;5071625;28;20542;-82
2022/12/08 11:06:18;;;;;;;13.73;10.70;;;;;;;4.20;98.86;98872.63;5054957;28;20111;-82
2022/12/08 11:09:06;;;;;;;24.83;17.13;;;;;;;4.24;98.98;98875.03;5070876;28;20055;-82
2022/12/08 11:11:51;;;;;;;13.45;10.50;;;;;;;4.30;97.52;98889.47;5067668;28;20044;-81
2022/12/08 11:14:20;;;;;;;11.75;10.18;;;;;;;4.35;97.02;98885.00;5068554;28;20086;-82
2022/12/08 11:16:46;;;;;;;18.75;12.85;;;;;;;4.42;97.38;98883.88;5092905;28;20428;-81
2022/12/08 11:19:16;;;;;;;18.13;13.90;;;;;;;4.54;97.39;98884.38;5093878;28;20027;-82
2022/12/08 11:21:42;;;;;;;18.80;14.05;;;;;;;4.58;97.44;98873.91;5092576;28;20016;-81
2022/12/08 11:24:21;;;;;;;20.20;15.32;;;;;;;4.62;97.06;98880.63;5092659;28;20085;-82
2022/12/08 11:26:52;;;;;;;30.00;19.88;;;;;;;4.64;97.01;98873.69;5092424;28;20020;-83
2022/12/08 11:29:17;;;;;;;29.23;19.10;;;;;;;4.70;96.51;98880.38;5093282;28;20464;-81